Fuget, Kentucky
Current Conditions -  °F | °C
As of 8:35 AM on Saturday 25 Oct 2014 (Local Time) from KSJS Reporting Station
Clear Clear  
Wind Chill: 42°   Ceiling: Unl
Heat Index: 42°   Visibility: 10mi
Dew Point: 40°   Wind: 3mph
Humidity: 93%   Direction: 220°SW
Pressure: 30.07"   Gusts: NA
Location:  37.9467°N, 82.8859°W
Report Text: KSJS 251235Z AUTO 22003KT 10SM CLR 06/05 A3007 RMK AO2 T00560045
Loading
Personal Weather Stations






























Interactive Weather Map
Tropical Storm Tracking
New forecast layout! Learn more

10-Day Weather Forecast

Advertisements
Track Severe Weather on mobile